createdAt,value
2022-11-08T00:01:44.520Z,-3.95
2022-11-08T00:03:47.317Z,7.14
2022-11-08T00:06:07.325Z,7.14
2022-11-08T00:08:27.623Z,6.17
2022-11-08T00:10:47.909Z,7.09
2022-11-08T00:13:09.418Z,1.98
2022-11-08T00:15:12.352Z,6.03
2022-11-08T00:17:16.227Z,7.01
2022-11-08T00:19:19.030Z,6.99
2022-11-08T00:21:21.758Z,6.97
2022-11-08T00:23:24.491Z,6.93
2022-11-08T00:25:27.181Z,6.82
2022-11-08T00:27:29.975Z,1.47
2022-11-08T00:29:34.881Z,0.12
2022-11-08T00:31:38.236Z,4.65
2022-11-08T00:33:40.987Z,6.44
2022-11-08T00:35:43.646Z,6.50
2022-11-08T00:37:46.332Z,1.88
2022-11-08T00:39:49.542Z,5.15
2022-11-08T00:41:52.557Z,6.56
2022-11-08T00:43:55.291Z,5.21
2022-11-08T00:45:59.336Z,6.68
2022-11-08T00:48:02.065Z,6.77
2022-11-08T00:50:05.300Z,4.33
2022-11-08T00:52:08.078Z,6.87
2022-11-08T00:54:13.936Z,6.93
2022-11-08T00:56:16.663Z,6.96
2022-11-08T00:58:22.322Z,5.61
2022-11-08T01:00:29.399Z,5.51
2022-11-08T01:02:33.569Z,6.87
2022-11-08T01:04:36.351Z,6.87
2022-11-08T01:06:39.976Z,4.09
2022-11-08T01:08:43.210Z,6.99
2022-11-08T01:10:48.794Z,5.66
2022-11-08T01:12:51.550Z,2.82
2022-11-08T01:14:54.943Z,7.00
2022-11-08T01:16:57.663Z,-0.12
2022-11-08T01:19:03.343Z,1.51
2022-11-08T01:21:07.440Z,1.50
2022-11-08T01:23:11.382Z,5.07
2022-11-08T01:25:14.119Z,6.71
2022-11-08T01:27:16.918Z,6.67
2022-11-08T01:29:19.619Z,6.67
2022-11-08T01:31:25.188Z,6.27
2022-11-08T01:33:28.085Z,6.77
2022-11-08T01:35:33.124Z,6.71
2022-11-08T01:37:35.933Z,5.66
2022-11-08T01:39:38.655Z,4.92
2022-11-08T01:41:41.476Z,6.33
2022-11-08T01:43:45.656Z,6.59
2022-11-08T01:46:39.923Z,6.15
2022-11-08T01:48:47.488Z,4.02
2022-11-08T01:50:52.353Z,6.47
2022-11-08T01:52:56.896Z,6.47
2022-11-08T01:55:11.070Z,5.21
2022-11-08T01:57:17.526Z,0.89
2022-11-08T01:59:20.610Z,2.43
2022-11-08T02:01:23.460Z,-0.38
2022-11-08T02:03:26.388Z,6.32
2022-11-08T02:05:31.468Z,6.31
2022-11-08T02:07:36.152Z,6.24
2022-11-08T02:09:41.138Z,5.03
2022-11-08T02:11:44.312Z,6.30
2022-11-08T02:13:47.275Z,6.24
2022-11-08T02:15:50.226Z,5.88
2022-11-08T02:17:53.672Z,6.30
2022-11-08T02:19:56.485Z,4.52
2022-11-08T02:22:04.247Z,5.36
2022-11-08T02:24:11.641Z,6.42
2022-11-08T02:26:16.302Z,6.40
2022-11-08T02:28:19.341Z,3.12
2022-11-08T02:30:22.616Z,2.09
2022-11-08T02:32:25.443Z,6.27
2022-11-08T02:34:31.643Z,6.21
2022-11-08T02:36:34.331Z,6.28
2022-11-08T02:38:41.495Z,1.37
2022-11-08T02:40:50.162Z,5.08
2022-11-08T02:42:52.878Z,5.64
2022-11-08T02:44:55.608Z,6.41
2022-11-08T02:46:58.513Z,-3.13
2022-11-08T02:49:01.199Z,4.31
2022-11-08T02:51:04.080Z,6.45
2022-11-08T02:53:07.141Z,6.42
2022-11-08T02:55:10.005Z,6.42
2022-11-08T02:57:14.135Z,1.07
2022-11-08T02:59:17.142Z,6.44
2022-11-08T03:01:20.217Z,6.51
2022-11-08T03:03:23.008Z,3.68
2022-11-08T03:05:26.844Z,6.50
2022-11-08T03:07:29.606Z,4.87
2022-11-08T03:09:32.307Z,6.48
2022-11-08T03:11:35.110Z,6.48
2022-11-08T03:13:39.223Z,6.43
2022-11-08T03:15:42.197Z,6.41
2022-11-08T03:17:44.909Z,5.94
2022-11-08T03:19:47.628Z,1.48
2022-11-08T03:21:50.345Z,6.41
2022-11-08T03:23:53.147Z,6.33
2022-11-08T03:25:55.901Z,4.64
2022-11-08T03:28:02.795Z,6.35
2022-11-08T03:30:08.432Z,1.33
2022-11-08T03:32:11.186Z,3.67
2022-11-08T03:34:13.982Z,4.90
2022-11-08T03:36:16.729Z,4.27
2022-11-08T03:38:19.883Z,6.06
2022-11-08T03:40:23.396Z,6.15
2022-11-08T03:42:26.222Z,5.04
2022-11-08T03:44:28.891Z,1.33
2022-11-08T03:46:33.049Z,2.57
2022-11-08T03:48:35.808Z,6.36
2022-11-08T03:50:38.602Z,3.73
2022-11-08T03:52:42.374Z,3.83
2022-11-08T03:54:45.160Z,6.47
2022-11-08T03:56:47.980Z,6.47
2022-11-08T03:58:50.896Z,6.51
2022-11-08T04:00:53.704Z,6.48
2022-11-08T04:03:01.864Z,1.57
2022-11-08T04:05:06.363Z,3.80
2022-11-08T04:07:09.186Z,5.94
2022-11-08T04:09:11.937Z,-1.99
2022-11-08T04:11:32.249Z,3.44
2022-11-08T04:13:52.569Z,-3.72
2022-11-08T04:15:57.464Z,6.42
2022-11-08T04:18:19.406Z,1.94
2022-11-08T04:20:40.483Z,-1.04
2022-11-08T04:22:43.281Z,6.50
2022-11-08T04:24:46.002Z,5.23
2022-11-08T04:26:48.885Z,6.45
2022-11-08T04:28:51.734Z,6.42
2022-11-08T04:30:56.126Z,-1.01
2022-11-08T04:33:02.349Z,-0.38
2022-11-08T04:35:05.355Z,6.52
2022-11-08T04:37:08.155Z,4.83
2022-11-08T04:39:10.899Z,6.50
2022-11-08T04:41:15.702Z,2.82
2022-11-08T04:43:18.612Z,6.46
2022-11-08T04:45:21.417Z,5.20
2022-11-08T04:47:24.248Z,6.01
2022-11-08T04:49:28.366Z,5.78
2022-11-08T04:51:33.631Z,3.14
2022-11-08T04:53:36.448Z,-0.15
2022-11-08T04:55:39.551Z,2.19
2022-11-08T04:57:42.411Z,4.46
2022-11-08T04:59:45.262Z,5.28
2022-11-08T05:01:48.093Z,6.21
2022-11-08T05:03:52.562Z,6.19
2022-11-08T05:05:56.694Z,3.66
2022-11-08T05:07:59.387Z,0.54
2022-11-08T05:10:02.734Z,6.08
2022-11-08T05:12:06.039Z,6.05
2022-11-08T05:14:08.796Z,6.04
2022-11-08T05:16:14.117Z,4.60
2022-11-08T05:18:17.157Z,5.79
2022-11-08T05:20:37.602Z,5.80
2022-11-08T05:22:59.537Z,0.97
2022-11-08T05:25:02.404Z,5.36
2022-11-08T05:27:05.215Z,5.73
2022-11-08T05:29:08.009Z,5.62
2022-11-08T05:31:11.155Z,-4.74
2022-11-08T05:33:15.909Z,5.30
2022-11-08T05:35:21.452Z,5.77
2022-11-08T05:37:24.258Z,5.75
2022-11-08T05:39:32.100Z,5.75
2022-11-08T05:41:35.136Z,5.72
2022-11-08T05:43:38.252Z,5.71
2022-11-08T05:45:41.039Z,5.67
2022-11-08T05:47:45.711Z,5.38
2022-11-08T05:49:48.457Z,5.61
2022-11-08T05:51:51.181Z,5.58
2022-11-08T05:53:54.166Z,5.45
2022-11-08T05:56:00.301Z,5.59
2022-11-08T05:58:03.044Z,5.57
2022-11-08T06:00:07.315Z,0.79
2022-11-08T06:02:14.864Z,4.59
2022-11-08T06:04:17.896Z,5.60
2022-11-08T06:06:21.953Z,-5.74
2022-11-08T06:08:24.656Z,5.53
2022-11-08T06:10:28.056Z,5.31
2022-11-08T06:12:32.358Z,5.16
2022-11-08T06:14:35.220Z,5.57
2022-11-08T06:16:37.958Z,-0.65
2022-11-08T06:18:41.789Z,4.41
2022-11-08T06:20:44.544Z,0.91
2022-11-08T06:22:47.268Z,0.75
2022-11-08T06:24:49.986Z,5.53
2022-11-08T06:26:52.710Z,2.33
2022-11-08T06:28:56.769Z,5.57
2022-11-08T06:31:00.006Z,0.87
2022-11-08T06:33:02.740Z,1.00
2022-11-08T06:35:06.101Z,5.58
2022-11-08T06:37:09.101Z,-5.77
2022-11-08T06:39:11.892Z,0.96
2022-11-08T06:41:19.652Z,2.87
2022-11-08T06:43:23.283Z,4.76
2022-11-08T06:45:28.230Z,0.42
2022-11-08T06:47:30.978Z,-4.31
2022-11-08T06:49:33.793Z,3.72
2022-11-08T06:51:36.552Z,5.49
2022-11-08T06:53:39.374Z,0.66
2022-11-08T06:55:42.211Z,6.06
2022-11-08T06:57:45.018Z,6.13
2022-11-08T06:59:47.720Z,6.19
2022-11-08T07:01:52.049Z,6.27
2022-11-08T07:03:54.930Z,-0.53
2022-11-08T07:05:57.677Z,-4.47
2022-11-08T07:08:01.487Z,6.37
2022-11-08T07:10:04.482Z,6.40
2022-11-08T07:12:07.501Z,6.50
2022-11-08T07:14:10.251Z,6.53
2022-11-08T07:16:13.366Z,6.58
2022-11-08T07:18:19.988Z,6.51
2022-11-08T07:20:23.286Z,6.55
2022-11-08T07:22:26.844Z,6.51
2022-11-08T07:24:29.558Z,6.55
2022-11-08T07:26:32.314Z,6.60
2022-11-08T07:28:35.063Z,5.32
2022-11-08T07:30:37.879Z,6.60
2022-11-08T07:32:40.649Z,6.61
2022-11-08T07:34:44.709Z,6.23
2022-11-08T07:36:47.707Z,6.24
2022-11-08T07:38:50.665Z,6.40
2022-11-08T07:40:56.583Z,6.07
2022-11-08T07:43:15.212Z,6.55
2022-11-08T07:45:19.432Z,6.82
2022-11-08T07:47:22.437Z,6.98
2022-11-08T07:49:25.213Z,6.44
2022-11-08T07:51:29.366Z,5.98
2022-11-08T07:53:32.113Z,7.00
2022-11-08T07:55:37.587Z,4.13
2022-11-08T07:57:40.306Z,6.30
2022-11-08T07:59:43.148Z,7.80
2022-11-08T08:01:45.967Z,8.01
2022-11-08T08:03:48.796Z,7.61
2022-11-08T08:05:56.794Z,8.33
2022-11-08T08:08:02.982Z,8.10
2022-11-08T08:10:06.433Z,8.80
2022-11-08T08:12:09.193Z,9.02
2022-11-08T08:14:11.965Z,9.14
2022-11-08T08:16:14.723Z,9.26
2022-11-08T08:18:20.808Z,9.34
2022-11-08T08:20:23.643Z,7.65
2022-11-08T08:22:26.587Z,4.99
2022-11-08T08:24:30.735Z,9.62
2022-11-08T08:26:33.727Z,8.95
2022-11-08T08:28:36.608Z,9.71
2022-11-08T08:30:40.753Z,9.70
2022-11-08T08:32:43.510Z,9.74
2022-11-08T08:34:46.254Z,9.85
2022-11-08T08:36:49.104Z,9.90
2022-11-08T08:38:51.832Z,9.91
2022-11-08T08:40:55.944Z,9.93
2022-11-08T08:42:59.566Z,9.98
2022-11-08T08:45:02.629Z,8.79
2022-11-08T08:47:05.462Z,10.05
2022-11-08T08:49:08.218Z,10.07
2022-11-08T08:51:10.986Z,10.11
2022-11-08T08:53:14.201Z,10.18
2022-11-08T08:55:17.485Z,10.26
2022-11-08T08:57:21.602Z,10.39
2022-11-08T09:01:47.111Z,10.50
2022-11-08T09:03:49.851Z,10.16
2022-11-08T09:05:52.656Z,10.70
2022-11-08T09:07:56.387Z,10.79
2022-11-08T09:09:59.141Z,10.82
2022-11-08T09:12:01.891Z,10.93
2022-11-08T09:14:06.029Z,11.05
2022-11-08T09:16:10.176Z,11.09
2022-11-08T09:18:13.120Z,11.15
2022-11-08T09:20:15.998Z,11.16
2022-11-08T09:22:18.781Z,11.08
2022-11-08T09:24:21.585Z,8.02
2022-11-08T09:26:24.346Z,11.17
2022-11-08T09:28:31.190Z,11.31
2022-11-08T09:30:36.049Z,11.33
2022-11-08T09:32:59.635Z,11.33
2022-11-08T09:37:04.290Z,11.36
2022-11-08T09:39:07.310Z,11.48
2022-11-08T09:41:33.293Z,11.73
2022-11-08T09:43:48.589Z,11.83
2022-11-08T09:45:56.001Z,12.04
2022-11-08T09:48:05.294Z,12.13
2022-11-08T09:50:18.200Z,12.51
2022-11-08T09:52:24.720Z,12.63
2022-11-08T09:54:32.903Z,9.91
2022-11-08T09:56:37.863Z,12.75
2022-11-08T09:58:48.411Z,12.74
2022-11-08T10:00:53.544Z,12.74
2022-11-08T10:02:56.865Z,12.74
2022-11-08T10:05:02.718Z,12.67
2022-11-08T10:07:23.898Z,12.64
2022-11-08T10:09:41.448Z,12.66
2022-11-08T10:12:03.723Z,12.59
2022-11-08T10:14:21.958Z,12.55
2022-11-08T10:16:34.663Z,12.52
2022-11-08T10:19:15.776Z,12.67
2022-11-08T10:21:33.929Z,12.68
2022-11-08T10:23:44.801Z,9.13
2022-11-08T10:25:50.329Z,10.89
2022-11-08T10:27:55.948Z,13.18
2022-11-08T10:30:03.043Z,13.16
2022-11-08T10:32:20.525Z,13.14
2022-11-08T10:34:28.481Z,13.25
2022-11-08T10:36:38.612Z,11.68
2022-11-08T10:38:48.490Z,8.47
2022-11-08T10:40:58.966Z,10.95
2022-11-08T10:43:09.498Z,14.06
2022-11-08T10:45:12.452Z,14.47
2022-11-08T10:47:22.696Z,13.02
2022-11-08T10:49:27.458Z,14.96
2022-11-08T10:51:30.202Z,15.23
2022-11-08T10:53:34.879Z,15.16
2022-11-08T10:55:48.911Z,15.42
2022-11-08T10:57:51.717Z,15.58
2022-11-08T10:59:55.884Z,15.88
2022-11-08T11:01:59.604Z,14.32
2022-11-08T11:04:26.122Z,15.97
2022-11-08T11:06:30.953Z,16.00
2022-11-08T11:08:34.533Z,14.84
2022-11-08T11:10:39.478Z,16.31
2022-11-08T11:12:42.203Z,14.94
2022-11-08T11:14:44.932Z,16.53
2022-11-08T11:16:55.600Z,16.78
2022-11-08T11:19:00.390Z,17.15
2022-11-08T11:21:08.434Z,17.54
2022-11-08T11:23:12.250Z,17.83
2022-11-08T11:25:19.049Z,18.03
2022-11-08T11:27:31.082Z,18.48
2022-11-08T11:29:35.585Z,18.58
2022-11-08T11:31:39.601Z,18.58
2022-11-08T11:33:46.175Z,18.44
2022-11-08T11:35:53.032Z,18.60
2022-11-08T11:38:00.221Z,17.81
2022-11-08T11:40:12.865Z,19.26
2022-11-08T11:42:44.329Z,19.02
2022-11-08T11:45:01.398Z,19.33
2022-11-08T11:47:07.646Z,19.56
2022-11-08T11:49:18.821Z,19.61
2022-11-08T11:51:23.313Z,19.62
2022-11-08T11:53:32.906Z,18.85
2022-11-08T11:55:52.787Z,19.95
2022-11-08T11:58:12.543Z,20.14
2022-11-08T12:00:17.322Z,20.55
2022-11-08T12:02:58.675Z,21.02
2022-11-08T12:05:18.592Z,21.08
2022-11-08T12:07:25.781Z,19.37
2022-11-08T12:09:42.522Z,21.09
2022-11-08T12:11:59.838Z,21.37
2022-11-08T12:14:15.712Z,21.70
2022-11-08T12:16:26.694Z,20.17
2022-11-08T12:18:45.426Z,20.81
2022-11-08T12:21:01.908Z,20.67
2022-11-08T12:23:21.268Z,20.49
2022-11-08T12:25:33.029Z,19.61
2022-11-08T12:27:45.110Z,20.78
2022-11-08T12:29:55.718Z,17.57
2022-11-08T12:32:14.080Z,20.37
2022-11-08T12:34:23.731Z,20.24
2022-11-08T12:36:34.599Z,20.12
2022-11-08T12:38:45.681Z,18.61
2022-11-08T12:40:59.504Z,19.80
2022-11-08T12:43:17.707Z,19.44
2022-11-08T12:45:48.027Z,19.39
2022-11-08T12:47:57.133Z,18.77
2022-11-08T12:50:13.134Z,19.19
2022-11-08T12:52:29.811Z,19.15
2022-11-08T12:54:36.603Z,19.02
2022-11-08T12:56:44.168Z,18.76
2022-11-08T12:58:49.990Z,18.76
2022-11-08T13:00:55.524Z,18.79
2022-11-08T13:03:07.113Z,18.72
2022-11-08T13:05:19.569Z,17.75
2022-11-08T13:07:34.141Z,18.68
2022-11-08T13:09:48.475Z,18.65
2022-11-08T13:12:01.283Z,18.50
2022-11-08T13:14:05.455Z,17.47
2022-11-08T13:16:11.103Z,16.74
2022-11-08T13:18:26.060Z,18.20
2022-11-08T13:20:42.740Z,18.12
2022-11-08T13:23:00.238Z,18.12
2022-11-08T13:25:07.142Z,18.09
2022-11-08T13:27:33.314Z,17.66
2022-11-08T13:29:36.038Z,17.43
2022-11-08T13:31:49.501Z,17.18
2022-11-08T13:34:17.230Z,17.07
2022-11-08T13:36:32.246Z,17.01
2022-11-08T13:38:46.143Z,17.16
2022-11-08T13:41:08.804Z,17.33
2022-11-08T13:43:27.060Z,17.45
2022-11-08T13:45:33.130Z,17.36
2022-11-08T13:48:26.970Z,17.40
2022-11-08T13:50:53.472Z,17.44
2022-11-08T13:53:04.471Z,15.78
2022-11-08T13:55:45.033Z,17.54
2022-11-08T13:58:00.276Z,17.57
2022-11-08T14:00:10.853Z,17.25
2022-11-08T14:02:39.177Z,17.77
2022-11-08T14:04:42.236Z,18.02
2022-11-08T14:06:54.849Z,18.08
2022-11-08T14:09:04.421Z,17.88
2022-11-08T14:11:39.982Z,16.90
2022-11-08T14:14:06.767Z,17.71
2022-11-08T14:16:16.979Z,17.75
2022-11-08T14:18:26.579Z,16.55
2022-11-08T14:20:35.813Z,17.65
2022-11-08T14:22:38.517Z,17.67
2022-11-08T14:24:41.546Z,17.70
2022-11-08T14:26:48.007Z,15.45
2022-11-08T14:28:52.491Z,17.76
2022-11-08T14:30:55.847Z,14.89
2022-11-08T14:33:18.119Z,17.74
2022-11-08T14:35:25.548Z,17.63
2022-11-08T14:37:29.284Z,17.46
2022-11-08T14:39:34.233Z,17.46
2022-11-08T14:41:37.114Z,17.39
2022-11-08T14:43:45.220Z,17.30
2022-11-08T14:45:48.642Z,17.20
2022-11-08T14:47:54.301Z,17.08
2022-11-08T14:49:59.225Z,16.93
2022-11-08T14:52:14.637Z,16.82
2022-11-08T14:54:19.542Z,16.82
2022-11-08T14:56:24.283Z,16.11
2022-11-08T14:58:29.879Z,14.94
2022-11-08T15:00:32.777Z,16.69
2022-11-08T15:02:35.715Z,16.63
2022-11-08T15:04:41.121Z,16.58
2022-11-08T15:06:47.824Z,16.48
2022-11-08T15:08:53.189Z,16.44
2022-11-08T15:10:59.155Z,16.37
2022-11-08T15:13:02.423Z,16.22
2022-11-08T15:15:05.580Z,16.10
2022-11-08T15:17:08.264Z,16.00
2022-11-08T15:19:28.991Z,15.34
2022-11-08T15:21:32.908Z,15.34
2022-11-08T15:23:49.082Z,9.61
2022-11-08T15:25:56.866Z,9.89
2022-11-08T15:28:16.104Z,13.62
2022-11-08T15:30:21.035Z,14.83
2022-11-08T15:32:23.989Z,15.34
2022-11-08T15:34:32.381Z,12.69
2022-11-08T15:36:37.037Z,15.32
2022-11-08T15:38:41.237Z,10.80
2022-11-08T15:40:50.863Z,15.10
2022-11-08T15:42:53.600Z,12.33
2022-11-08T15:45:00.423Z,14.88
2022-11-08T15:47:03.375Z,14.82
2022-11-08T15:49:20.931Z,14.76
2022-11-08T15:51:23.688Z,14.76
2022-11-08T15:53:27.500Z,14.62
2022-11-08T15:55:32.808Z,14.66
2022-11-08T15:57:39.825Z,14.61
2022-11-08T15:59:42.588Z,14.55
2022-11-08T16:01:54.607Z,13.94
2022-11-08T16:03:57.484Z,14.19
2022-11-08T16:06:00.360Z,13.97
2022-11-08T16:08:03.388Z,14.29
2022-11-08T16:10:07.208Z,4.69
2022-11-08T16:12:15.319Z,14.28
2022-11-08T16:14:21.527Z,14.20
2022-11-08T16:16:24.313Z,11.92
2022-11-08T16:18:27.493Z,11.80
2022-11-08T16:20:31.928Z,13.78
2022-11-08T16:22:34.684Z,13.66
2022-11-08T16:24:37.424Z,13.71
2022-11-08T16:26:40.962Z,10.30
2022-11-08T16:28:44.328Z,13.04
2022-11-08T16:30:48.608Z,13.86
2022-11-08T16:32:51.572Z,13.77
2022-11-08T16:34:54.296Z,12.93
2022-11-08T16:36:57.022Z,13.41
2022-11-08T16:39:02.667Z,13.10
2022-11-08T16:41:06.321Z,12.82
2022-11-08T16:43:11.497Z,12.75
2022-11-08T16:45:15.113Z,13.02
2022-11-08T16:47:20.475Z,13.14
2022-11-08T16:49:26.689Z,13.18
2022-11-08T16:51:30.407Z,13.25
2022-11-08T16:53:33.275Z,13.33
2022-11-08T16:55:35.988Z,13.34
2022-11-08T16:57:38.749Z,13.30
2022-11-08T16:59:41.609Z,10.83
2022-11-08T17:01:45.168Z,13.19
2022-11-08T17:03:49.360Z,13.18
2022-11-08T17:05:53.813Z,13.08
2022-11-08T17:07:56.754Z,13.09
2022-11-08T17:09:59.511Z,10.08
2022-11-08T17:12:02.337Z,13.11
2022-11-08T17:14:05.304Z,13.09
2022-11-08T17:16:10.708Z,10.67
2022-11-08T17:18:16.523Z,6.22
2022-11-08T17:20:21.561Z,12.90
2022-11-08T17:22:29.405Z,12.91
2022-11-08T17:24:32.226Z,12.81
2022-11-08T17:26:34.929Z,12.85
2022-11-08T17:28:38.375Z,12.81
2022-11-08T17:30:44.432Z,12.73
2022-11-08T17:32:47.698Z,12.72
2022-11-08T17:34:50.598Z,12.69
2022-11-08T17:36:54.810Z,11.31
2022-11-08T17:38:57.581Z,12.68
2022-11-08T17:41:03.671Z,12.69
2022-11-08T17:43:06.537Z,12.65
2022-11-08T17:45:11.631Z,8.25
2022-11-08T17:47:14.384Z,12.50
2022-11-08T17:49:17.606Z,11.70
2022-11-08T17:51:20.394Z,12.32
2022-11-08T17:53:25.398Z,12.32
2022-11-08T17:55:28.180Z,12.30
2022-11-08T17:57:31.003Z,12.26
2022-11-08T17:59:33.839Z,12.17
2022-11-08T18:01:36.777Z,11.83
2022-11-08T18:03:39.612Z,11.83
2022-11-08T18:05:42.574Z,11.91
2022-11-08T18:07:45.680Z,10.98
2022-11-08T18:09:49.890Z,11.45
2022-11-08T18:11:52.686Z,11.42
2022-11-08T18:13:55.806Z,11.64
2022-11-08T18:16:06.999Z,10.03
2022-11-08T18:18:10.433Z,9.69
2022-11-08T18:20:13.536Z,11.55
2022-11-08T18:22:16.333Z,9.12
2022-11-08T18:24:19.253Z,6.87
2022-11-08T18:26:23.426Z,11.30
2022-11-08T18:28:26.876Z,6.59
2022-11-08T18:30:29.617Z,9.38
2022-11-08T18:32:32.431Z,11.58
2022-11-08T18:34:35.211Z,11.62
2022-11-08T18:36:38.018Z,10.65
2022-11-08T18:38:41.965Z,11.64
2022-11-08T18:40:45.934Z,5.23
2022-11-08T18:42:50.460Z,9.67
2022-11-08T18:44:53.239Z,11.66
2022-11-08T18:46:56.004Z,10.52
2022-11-08T18:48:58.749Z,11.72
2022-11-08T18:51:01.583Z,11.70
2022-11-08T18:53:06.949Z,11.71
2022-11-08T18:55:10.245Z,8.03
2022-11-08T18:57:12.959Z,10.78
2022-11-08T18:59:17.385Z,11.78
2022-11-08T19:01:20.209Z,11.80
2022-11-08T19:03:23.542Z,11.84
2022-11-08T19:05:26.295Z,11.84
2022-11-08T19:07:30.138Z,10.93
2022-11-08T19:09:32.997Z,10.69
2022-11-08T19:11:36.451Z,11.93
2022-11-08T19:13:40.932Z,9.70
2022-11-08T19:15:45.028Z,11.99
2022-11-08T19:17:52.585Z,11.97
2022-11-08T19:19:55.544Z,10.20
2022-11-08T19:21:58.508Z,10.48
2022-11-08T19:24:01.302Z,12.16
2022-11-08T19:26:06.168Z,11.32
2022-11-08T19:28:08.987Z,12.06
2022-11-08T19:30:12.804Z,12.03
2022-11-08T19:32:16.878Z,9.28
2022-11-08T19:34:19.702Z,9.48
2022-11-08T19:36:23.795Z,12.01
2022-11-08T19:38:26.560Z,12.02
2022-11-08T19:40:32.273Z,11.95
2022-11-08T19:42:35.360Z,11.93
2022-11-08T19:44:38.231Z,11.93
2022-11-08T19:46:41.720Z,11.11
2022-11-08T19:48:47.745Z,11.82
2022-11-08T19:50:50.742Z,8.59
2022-11-08T19:52:53.484Z,11.18
2022-11-08T19:54:56.253Z,11.58
2022-11-08T19:57:06.607Z,11.48
2022-11-08T19:59:09.801Z,11.50
2022-11-08T20:01:16.044Z,10.94
2022-11-08T20:03:18.863Z,11.61
2022-11-08T20:05:23.282Z,5.99
2022-11-08T20:07:26.031Z,11.58
2022-11-08T20:09:31.077Z,5.96
2022-11-08T20:11:35.718Z,11.62
2022-11-08T20:13:38.506Z,10.17
2022-11-08T20:15:41.398Z,11.58
2022-11-08T20:17:44.170Z,11.30
2022-11-08T20:19:47.099Z,6.43
2022-11-08T20:21:51.277Z,11.17
2022-11-08T20:23:54.040Z,11.62
2022-11-08T20:26:00.806Z,7.22
2022-11-08T20:28:03.647Z,11.64
2022-11-08T20:30:07.760Z,11.65
2022-11-08T20:32:11.454Z,11.64
2022-11-08T20:34:14.407Z,11.65
2022-11-08T20:36:19.098Z,11.64
2022-11-08T20:38:23.221Z,9.34
2022-11-08T20:40:25.983Z,5.79
2022-11-08T20:42:28.713Z,11.60
2022-11-08T20:44:31.505Z,11.58
2022-11-08T20:46:34.800Z,10.86
2022-11-08T20:48:42.646Z,11.56
2022-11-08T20:50:45.889Z,9.97
2022-11-08T20:52:48.618Z,7.79
2022-11-08T20:54:52.737Z,11.56
2022-11-08T20:56:55.506Z,10.95
2022-11-08T20:58:58.653Z,8.36
2022-11-08T21:01:03.077Z,11.28
2022-11-08T21:03:05.784Z,9.88
2022-11-08T21:05:09.348Z,11.37
2022-11-08T21:09:48.913Z,11.34
2022-11-08T21:11:53.777Z,11.33
2022-11-08T21:13:56.543Z,11.31
2022-11-08T21:16:19.846Z,11.31
2022-11-08T21:18:23.689Z,10.89
2022-11-08T21:20:26.914Z,8.67
2022-11-08T21:22:29.736Z,5.90
2022-11-08T21:24:32.548Z,10.93
2022-11-08T21:26:36.557Z,9.70
2022-11-08T21:28:41.638Z,11.04
2022-11-08T21:30:44.957Z,9.19
2022-11-08T21:32:47.780Z,10.99
2022-11-08T21:34:50.522Z,10.36
2022-11-08T21:36:53.363Z,10.83
2022-11-08T21:38:56.215Z,8.38
2022-11-08T21:41:03.004Z,10.82
2022-11-08T21:43:05.810Z,10.87
2022-11-08T21:45:11.193Z,9.77
2022-11-08T21:47:13.988Z,10.95
2022-11-08T21:49:16.759Z,10.80
2022-11-08T21:51:19.519Z,10.86
2022-11-08T21:53:22.379Z,10.71
2022-11-08T21:55:25.264Z,8.56
2022-11-08T21:57:28.083Z,10.53
2022-11-08T21:59:30.872Z,10.38
2022-11-08T22:01:35.371Z,5.07
2022-11-08T22:03:38.264Z,10.59
2022-11-08T22:05:41.263Z,10.17
2022-11-08T22:07:44.150Z,10.55
2022-11-08T22:09:46.992Z,10.62
2022-11-08T22:11:49.795Z,10.42
2022-11-08T22:13:52.663Z,10.48
2022-11-08T22:15:55.678Z,10.65
2022-11-08T22:18:17.561Z,3.43
2022-11-08T22:20:22.686Z,10.86
2022-11-08T22:22:25.400Z,4.78
2022-11-08T22:24:28.194Z,10.12
2022-11-08T22:26:30.981Z,10.93
2022-11-08T22:28:33.725Z,8.80
2022-11-08T22:30:36.554Z,11.03
2022-11-08T22:32:39.693Z,10.24
2022-11-08T22:34:44.271Z,10.96
2022-11-08T22:36:47.087Z,10.99
2022-11-08T22:38:49.845Z,11.03
2022-11-08T22:40:52.743Z,8.18
2022-11-08T22:42:55.501Z,11.09
2022-11-08T22:44:58.272Z,9.61
2022-11-08T22:47:01.073Z,10.71
2022-11-08T22:49:04.001Z,11.23
2022-11-08T22:51:08.413Z,11.21
2022-11-08T22:53:11.202Z,11.15
2022-11-08T22:55:13.985Z,11.20
2022-11-08T22:57:16.724Z,11.29
2022-11-08T22:59:19.520Z,11.29
2022-11-08T23:01:22.409Z,11.33
2022-11-08T23:03:25.992Z,11.33
2022-11-08T23:05:28.756Z,8.21
2022-11-08T23:07:32.795Z,11.35
2022-11-08T23:09:35.532Z,11.37
2022-11-08T23:11:55.896Z,8.62
2022-11-08T23:14:16.271Z,11.40
2022-11-08T23:16:36.440Z,10.31
2022-11-08T23:18:39.163Z,11.43
2022-11-08T23:20:59.380Z,10.02
2022-11-08T23:23:21.321Z,10.14
2022-11-08T23:25:24.203Z,11.27
2022-11-08T23:27:46.113Z,11.05
2022-11-08T23:30:06.948Z,11.43
2022-11-08T23:32:09.731Z,11.35
2022-11-08T23:34:12.500Z,11.29
2022-11-08T23:36:15.906Z,11.31
2022-11-08T23:38:22.547Z,11.40
2022-11-08T23:40:43.008Z,11.17
2022-11-08T23:43:03.535Z,9.76
2022-11-08T23:45:07.463Z,4.70
2022-11-08T23:47:10.438Z,11.18
2022-11-08T23:49:13.217Z,4.87
2022-11-08T23:51:16.095Z,11.44
2022-11-08T23:53:21.559Z,11.46
2022-11-08T23:55:24.591Z,11.48
2022-11-08T23:57:27.401Z,9.04
2022-11-08T23:59:30.215Z,11.54
